Time;durP1;ratioP1;P1;durP2;ratioP2;P2;SDS_P1;SDS_P2;PMS_P1;PMS_P2;Temp;Humidity;BMP_temperature;BMP_pressure;BME280_temperature;BME280_humidity;BME280_pressure;Samples;Min_cycle;Max_cycle;Signal;HPM_P1;HPM_P2
2023/04/24 00:00:26;;;;;;;;;;;;;;;8.95;70.16;100867.44;4944819;28;19918;-87
2023/04/24 00:02:56;;;;;;;;;;;;;;;8.96;69.88;100869.13;4948735;28;19941;-90
2023/04/24 00:05:22;;;;;;;;;;;;;;;8.96;69.57;100860.25;4966925;28;19930;-89
2023/04/24 00:07:47;;;;;;;;;;;;;;;8.94;69.47;100865.75;4946154;28;20008;-88
2023/04/24 00:10:14;;;;;;;;;;;;;;;8.78;70.03;100860.13;4946777;28;19922;-88
2023/04/24 00:12:39;;;;;;;;;;;;;;;8.80;70.00;100850.13;4944828;28;19988;-89
2023/04/24 00:15:06;;;;;;;;;;;;;;;8.80;70.01;100863.53;4931769;28;19926;-89
2023/04/24 00:17:34;;;;;;;;;;;;;;;8.78;70.17;100855.63;4948740;28;19930;-89
2023/04/24 00:20:04;;;;;;;;;;;;;;;8.77;70.26;100859.28;4969921;28;19933;-89
2023/04/24 00:22:31;;;;;;;;;;;;;;;8.68;70.36;100848.59;4969429;28;19954;-89
2023/04/24 00:24:57;;;;;;;;;;;;;;;8.69;70.53;100844.94;4969376;28;19929;-88
2023/04/24 00:27:25;;;;;;;;;;;;;;;8.62;70.68;100842.81;4954220;28;19922;-90
2023/04/24 00:29:51;;;;;;;;;;;;;;;8.59;71.12;100851.16;4956160;28;20108;-88
2023/04/24 00:32:20;;;;;;;;;;;;;;;8.57;71.43;100853.13;4976740;28;19922;-89
2023/04/24 00:34:46;;;;;;;;;;;;;;;8.72;71.01;100844.66;4983044;28;19930;-91
2023/04/24 00:37:13;;;;;;;;;;;;;;;8.69;71.09;100844.94;4967326;28;19941;-90
2023/04/24 00:39:40;;;;;;;;;;;;;;;8.74;70.95;100848.88;4966969;28;19934;-90
2023/04/24 00:42:06;;;;;;;;;;;;;;;8.69;71.15;100844.94;4982761;28;19921;-90
2023/04/24 00:44:32;;;;;;;;;;;;;;;8.64;71.31;100854.25;4948459;28;19934;-90
2023/04/24 00:46:57;;;;;;;;;;;;;;;8.64;71.41;100848.06;4940004;28;19965;-90
2023/04/24 00:49:23;;;;;;;;;;;;;;;8.68;71.26;100859.31;4955241;28;19930;-91
2023/04/24 00:51:51;;;;;;;;;;;;;;;8.74;70.95;100848.03;4947974;28;19926;-90
2023/04/24 00:54:16;;;;;;;;;;;;;;;8.78;70.96;100854.78;4953504;28;19914;-89
2023/04/24 00:56:42;;;;;;;;;;;;;;;8.77;70.78;100858.47;4938482;28;19944;-89
2023/04/24 00:59:07;;;;;;;;;;;;;;;8.75;71.02;100855.06;4954590;28;20024;-88
2023/04/24 01:01:34;;;;;;;;;;;;;;;8.73;71.03;100851.69;4970764;28;19926;-90
2023/04/24 01:04:02;;;;;;;;;;;;;;;8.76;71.01;100857.63;4950543;28;19922;-88
2023/04/24 01:06:27;;;;;;;;;;;;;;;8.74;71.04;100853.38;4972840;28;19930;-88
2023/04/24 01:08:55;;;;;;;;;;;;;;;8.75;70.97;100849.72;4948988;29;19918;-90
2023/04/24 01:11:29;;;;;;;;;;;;;;;8.68;71.10;100856.63;4955312;28;19953;-91
2023/04/24 01:13:54;;;;;;;;;;;;;;;8.65;71.40;100863.97;4955161;28;20470;-91
2023/04/24 01:16:21;;;;;;;;;;;;;;;8.73;71.21;100857.03;4953453;28;19922;-90
2023/04/24 01:18:48;;;;;;;;;;;;;;;8.77;70.87;100859.28;4937932;28;20388;-88
2023/04/24 01:21:13;;;;;;;;;;;;;;;8.60;71.44;100857.38;4957443;28;19922;-93
2023/04/24 01:23:39;;;;;;;;;;;;;;;8.63;71.32;100852.53;4975061;28;19922;-89
2023/04/24 01:26:04;;;;;;;;;;;;;;;8.50;71.87;100851.16;4958837;28;19922;-88
2023/04/24 01:28:31;;;;;;;;;;;;;;;8.55;71.58;100849.75;4940524;28;19981;-91
2023/04/24 01:31:01;;;;;;;;;;;;;;;8.53;71.66;100849.03;4932484;28;19933;-90
2023/04/24 01:33:29;;;;;;;;;;;;;;;8.57;71.39;100845.09;4939291;28;20016;-88
2023/04/24 01:35:54;;;;;;;;;;;;;;;8.48;71.70;100837.91;4975221;28;20029;-89
2023/04/24 01:38:20;;;;;;;;;;;;;;;8.43;72.00;100837.50;4955304;28;20431;-89
2023/04/24 01:40:48;;;;;;;;;;;;;;;8.49;71.90;100844.94;4955415;28;20005;-89
2023/04/24 01:43:22;;;;;;;;;;;;;;;8.53;71.77;100832.13;4957120;28;19940;-95
2023/04/24 01:45:48;;;;;;;;;;;;;;;8.52;71.74;100844.69;4937653;29;20309;-95
2023/04/24 01:48:47;;;;;;;;;;;;;;;8.51;71.82;100848.34;4957656;28;19946;-95
2023/04/24 01:51:48;;;;;;;;;;;;;;;8.52;71.76;100839.31;4951218;28;20001;-96
2023/04/24 01:57:48;;;;;;;;;;;;;;;8.48;71.69;100845.97;4973614;28;19980;-92
2023/04/24 02:03:50;;;;;;;;;;;;;;;8.43;71.90;100837.50;4972060;28;20027;-94
2023/04/24 02:12:42;;;;;;;;;;;;;;;8.34;72.32;100828.44;5215632;22;19914;-95
2023/04/24 02:15:08;;;;;;;;;;;;;;;8.29;72.50;100832.53;4973354;28;19914;-93
2023/04/24 02:17:46;;;;;;;;;;;;;;;;;;;;;
2023/04/24 02:20:35;;;;;;;;;;;;;;;8.21;73.08;100836.75;4946356;28;19926;-93
2023/04/24 02:26:08;;;;;;;;;;;;;;;8.20;73.17;100829.72;4970911;28;20302;-94
2023/04/24 02:35:03;;;;;;;;;;;;;;;8.20;73.37;100827.03;4996517;28;19921;-96
2023/04/24 02:37:49;;;;;;;;;;;;;;;8.21;73.15;100830.56;4990928;28;19910;-96
2023/04/24 02:40:35;;;;;;;;;;;;;;;8.17;73.20;100830.00;4988525;28;19914;-96
2023/04/24 02:43:14;;;;;;;;;;;;;;;8.17;73.43;100835.38;4969398;28;19937;-94
2023/04/24 02:46:20;;;;;;;;;;;;;;;8.20;73.41;100832.41;4981293;28;19933;-93
2023/04/24 02:48:54;;;;;;;;;;;;;;;8.19;73.65;100829.84;4941230;28;19949;-94
2023/04/24 02:51:24;;;;;;;;;;;;;;;8.18;74.45;100831.69;4956314;28;19988;-95
2023/04/24 02:54:05;;;;;;;;;;;;;;;8.19;74.59;100822.69;4957097;28;19964;-96
2023/04/24 02:56:34;;;;;;;;;;;;;;;8.19;74.59;100830.72;4972412;28;19929;-93
2023/04/24 02:59:17;;;;;;;;;;;;;;;8.23;74.37;100832.09;4976823;28;19942;-94
2023/04/24 03:01:46;;;;;;;;;;;;;;;8.24;74.08;100830.25;4974516;28;20267;-95
2023/04/24 03:04:24;;;;;;;;;;;;;;;8.23;73.96;100834.78;4964467;28;19922;-93
2023/04/24 03:07:04;;;;;;;;;;;;;;;8.30;73.58;100831.56;4963168;28;20002;-93
2023/04/24 03:09:33;;;;;;;;;;;;;;;8.29;73.53;100828.03;4982047;28;19949;-92
2023/04/24 03:12:00;;;;;;;;;;;;;;;8.23;73.76;100829.44;4973827;28;19926;-94
2023/04/24 03:14:40;;;;;;;;;;;;;;;8.21;73.76;100825.19;4971961;28;19923;-95
2023/04/24 03:17:06;;;;;;;;;;;;;;;8.26;73.67;100822.94;4966997;28;19949;-94
2023/04/24 03:19:32;;;;;;;;;;;;;;;8.33;73.91;100818.69;4977127;28;19926;-95
2023/04/24 03:22:09;;;;;;;;;;;;;;;8.34;74.20;100819.56;4970107;28;20025;-94
2023/04/24 03:24:37;;;;;;;;;;;;;;;8.30;74.86;100823.53;4979114;28;19970;-96
2023/04/24 03:27:39;;;;;;;;;;;;;;;8.45;74.74;100832.81;4987465;28;20331;-93
2023/04/24 03:30:10;;;;;;;;;;;;;;;8.53;76.89;100826.78;4984546;28;19993;-93
2023/04/24 03:32:57;;;;;;;;;;;;;;;8.57;76.72;100826.34;4979439;28;19922;-95
2023/04/24 03:35:31;;;;;;;;;;;;;;;8.58;76.84;100830.69;5009347;23;19971;-96
2023/04/24 03:38:15;;;;;;;;;;;;;;;8.62;77.61;100834.78;4993901;28;19976;-96
2023/04/24 03:40:44;;;;;;;;;;;;;;;8.64;78.21;100832.81;4998788;28;19918;-92
2023/04/24 03:43:13;;;;;;;;;;;;;;;8.70;78.15;100826.03;4994634;28;19922;-93
2023/04/24 03:45:43;;;;;;;;;;;;;;;8.76;78.32;100832.66;4956094;28;19922;-95
2023/04/24 03:48:24;;;;;;;;;;;;;;;8.87;78.27;100832.47;4962010;28;19932;-95
2023/04/24 03:50:53;;;;;;;;;;;;;;;8.93;77.83;100837.25;4954618;28;19922;-95
2023/04/24 03:53:54;;;;;;;;;;;;;;;8.99;77.45;100836.69;4975494;28;20371;-94
2023/04/24 03:56:24;;;;;;;;;;;;;;;9.12;76.94;100833.66;4992999;28;20268;-94
2023/04/24 03:59:00;;;;;;;;;;;;;;;9.13;77.30;100835.34;4995058;28;19981;-94
2023/04/24 04:01:30;;;;;;;;;;;;;;;9.18;77.65;100841.13;4968456;28;19945;-94
2023/04/24 04:04:02;;;;;;;;;;;;;;;9.18;79.10;100840.28;4993796;28;20017;-94
2023/04/24 04:06:30;;;;;;;;;;;;;;;9.27;79.55;100834.00;4997692;28;19929;-93
2023/04/24 04:09:22;;;;;;;;;;;;;;;9.35;80.35;100836.81;5017374;28;19930;-93
2023/04/24 04:11:49;;;;;;;;;;;;;;;9.43;80.47;100836.88;4998625;28;19914;-93
2023/04/24 04:14:26;;;;;;;;;;;;;;;9.47;79.95;100843.66;5010267;28;19918;-93
2023/04/24 04:16:54;;;;;;;;;;;;;;;9.61;78.96;100838.78;4993950;28;19917;-93
2023/04/24 04:19:22;;;;;;;;;;;;;;;9.73;79.05;100841.09;5013647;28;19934;-94
2023/04/24 04:21:52;;;;;;;;;;;;;;;9.79;79.48;100839.66;5007923;28;19909;-93
2023/04/24 04:24:23;;;;;;;;;;;;;;;9.90;79.32;100841.28;5005247;28;19914;-94
2023/04/24 04:26:50;;;;;;;;;;;;;;;9.98;79.34;100849.44;4972306;28;19996;-93
2023/04/24 04:29:20;;;;;;;;;;;;;;;10.05;79.63;100849.66;4997230;28;20001;-95
2023/04/24 04:32:16;;;;;;;;;;;;;;;10.13;79.71;100845.19;4998230;28;19937;-94
2023/04/24 04:34:49;;;;;;;;;;;;;;;10.22;79.52;100842.59;4995601;28;19993;-95
2023/04/24 04:37:19;;;;;;;;;;;;;;;10.31;79.57;100839.84;4989382;28;19922;-94
2023/04/24 04:39:50;;;;;;;;;;;;;;;10.33;80.01;100831.66;5100112;23;19981;-94
2023/04/24 04:42:20;;;;;;;;;;;;;;;10.49;79.76;100842.53;4963174;28;19930;-93
2023/04/24 04:44:47;;;;;;;;;;;;;;;10.55;79.75;100843.75;4972789;28;19914;-93
2023/04/24 04:47:16;;;;;;;;;;;;;;;10.61;79.84;100845.81;4975392;28;20024;-92
2023/04/24 04:49:51;;;;;;;;;;;;;;;10.70;79.35;100839.50;4958682;28;19930;-93
2023/04/24 04:52:27;;;;;;;;;;;;;;;10.78;79.60;100841.38;4977895;28;20382;-94
2023/04/24 04:55:03;;;;;;;;;;;;;;;11.26;78.40;100841.81;4979642;28;20004;-95
2023/04/24 04:57:41;;;;;;;;;;;;;;;11.97;75.82;100832.50;4947831;28;19968;-94
2023/04/24 05:00:10;;;;;;;;;;;;;;;12.57;73.63;100840.28;4956469;28;19973;-92
2023/04/24 05:02:35;;;;;;;;;;;;;;;13.02;70.98;100830.78;4944026;28;19950;-92
2023/04/24 05:05:01;;;;;;;;;;;;;;;13.38;68.98;100829.50;4956905;28;19929;-90
2023/04/24 05:07:31;;;;;;;;;;;;;;;13.88;67.82;100839.03;4975712;28;19929;-92
2023/04/24 05:10:00;;;;;;;;;;;;;;;14.06;66.26;100834.19;4942084;28;19927;-91
2023/04/24 05:12:25;;;;;;;;;;;;;;;14.21;65.21;100828.00;4969771;28;19968;-94
2023/04/24 05:14:51;;;;;;;;;;;;;;;14.44;64.05;100839.63;4944106;28;20028;-92
2023/04/24 05:17:17;;;;;;;;;;;;;;;14.64;63.43;100837.31;4938856;28;19978;-92
2023/04/24 05:19:44;;;;;;;;;;;;;;;14.82;63.48;100839.69;4963508;28;19937;-92
2023/04/24 05:22:11;;;;;;;;;;;;;;;15.07;62.67;100834.00;4957854;28;19925;-92
2023/04/24 05:24:41;;;;;;;;;;;;;;;15.21;61.92;100833.16;4962368;28;19910;-92
2023/04/24 05:27:06;;;;;;;;;;;;;;;15.45;59.83;100825.75;4973798;28;19965;-93
2023/04/24 05:29:33;;;;;;;;;;;;;;;15.60;59.46;100830.13;4941983;28;19926;-93
2023/04/24 05:32:01;;;;;;;;;;;;;;;15.75;58.79;100832.00;4957445;28;19930;-91
2023/04/24 05:34:27;;;;;;;;;;;;;;;15.50;59.42;100826.03;4973339;28;19922;-94
2023/04/24 05:36:53;;;;;;;;;;;;;;;15.56;59.55;100828.81;4932821;28;19941;-93
2023/04/24 05:39:19;;;;;;;;;;;;;;;15.63;59.04;100834.31;4940931;28;19926;-91
2023/04/24 05:41:46;;;;;;;;;;;;;;;15.88;57.73;100823.19;4977609;28;19933;-91
2023/04/24 05:44:13;;;;;;;;;;;;;;;15.41;59.13;100833.44;4969216;28;19969;-92
2023/04/24 05:46:39;;;;;;;;;;;;;;;15.67;58.54;100830.22;4951985;28;19962;-92
2023/04/24 05:49:13;;;;;;;;;;;;;;;15.68;58.48;100831.06;4956724;28;20364;-94
2023/04/24 05:51:39;;;;;;;;;;;;;;;15.88;57.84;100839.47;4951347;28;19934;-92
2023/04/24 05:54:05;;;;;;;;;;;;;;;15.99;57.16;100838.94;4970421;28;19997;-91
2023/04/24 05:56:31;;;;;;;;;;;;;;;16.45;56.34;100833.13;4957519;28;19962;-94
2023/04/24 05:58:56;;;;;;;;;;;;;;;16.56;55.54;100829.88;4965304;28;20303;-92
2023/04/24 06:01:24;;;;;;;;;;;;;;;16.51;55.44;100839.66;4960678;28;19930;-92
2023/04/24 06:03:51;;;;;;;;;;;;;;;16.68;54.86;100847.31;4948918;28;19937;-92
2023/04/24 06:06:19;;;;;;;;;;;;;;;16.42;55.05;100836.25;4971697;28;19922;-92
2023/04/24 06:08:47;;;;;;;;;;;;;;;16.34;56.11;100836.38;4972207;28;19937;-91
2023/04/24 06:11:38;;;;;;;;;;;;;;;16.23;55.80;100830.44;4948267;28;19961;-92
2023/04/24 06:14:04;;;;;;;;;;;;;;;16.27;55.71;100838.19;4979134;28;19913;-93
2023/04/24 06:16:32;;;;;;;;;;;;;;;16.67;55.10;100836.66;4977385;28;19914;-89
2023/04/24 06:18:58;;;;;;;;;;;;;;;17.08;53.54;100835.94;4989685;28;19922;-90
2023/04/24 06:21:23;;;;;;;;;;;;;;;17.28;53.15;100833.34;4983482;28;19929;-89
2023/04/24 06:23:55;;;;;;;;;;;;;;;17.47;52.42;100837.19;4981778;28;19918;-91
2023/04/24 06:26:24;;;;;;;;;;;;;;;17.61;51.66;100832.66;4989726;28;19922;-91
2023/04/24 06:28:54;;;;;;;;;;;;;;;17.51;51.72;100833.88;4988388;28;19910;-92
2023/04/24 06:31:22;;;;;;;;;;;;;;;17.70;51.26;100837.72;4990680;28;19982;-92
2023/04/24 06:33:56;;;;;;;;;;;;;;;17.92;50.85;100830.28;4989958;28;19918;-93
2023/04/24 06:36:24;;;;;;;;;;;;;;;17.60;51.86;100830.97;4979206;28;20021;-89
2023/04/24 06:38:50;;;;;;;;;;;;;;;17.47;52.20;100831.75;4968793;28;19922;-93
2023/04/24 06:41:16;;;;;;;;;;;;;;;17.33;53.03;100830.84;4965234;28;19922;-92
2023/04/24 06:43:44;;;;;;;;;;;;;;;17.47;52.09;100832.59;4953171;28;20041;-93
2023/04/24 06:46:14;;;;;;;;;;;;;;;17.61;52.57;100843.53;4967276;28;19930;-91
2023/04/24 06:48:40;;;;;;;;;;;;;;;17.46;52.04;100830.91;4967922;28;19962;-89
2023/04/24 06:51:12;;;;;;;;;;;;;;;17.71;52.32;100833.09;4970945;28;19941;-88
2023/04/24 06:53:38;;;;;;;;;;;;;;;17.91;51.90;100823.16;4972034;28;19926;-94
2023/04/24 06:56:04;;;;;;;;;;;;;;;17.82;51.88;100840.72;4956194;28;19941;-88
2023/04/24 06:58:30;;;;;;;;;;;;;;;17.58;52.17;100839.31;4971976;28;19958;-90
2023/04/24 07:00:56;;;;;;;;;;;;;;;17.34;52.95;100837.13;4970729;28;19957;-90
2023/04/24 07:03:25;;;;;;;;;;;;;;;17.43;53.13;100836.75;4963550;28;20000;-91
2023/04/24 07:05:55;;;;;;;;;;;;;;;17.71;52.96;100836.66;4967324;28;19926;-90
2023/04/24 07:08:23;;;;;;;;;;;;;;;18.13;51.93;100842.06;4971468;28;19970;-89
2023/04/24 07:10:54;;;;;;;;;;;;;;;18.08;51.56;100844.56;4973384;28;19925;-93
2023/04/24 07:13:27;;;;;;;;;;;;;;;17.96;52.02;100836.16;4982947;28;19926;-90
2023/04/24 07:15:56;;;;;;;;;;;;;;;18.17;51.99;100847.91;4970797;28;19910;-90
2023/04/24 07:18:22;;;;;;;;;;;;;;;17.43;54.74;100844.91;4964722;28;19937;-91
2023/04/24 07:20:52;;;;;;;;;;;;;;;17.12;56.14;100842.66;4974285;28;19914;-91
2023/04/24 07:23:18;;;;;;;;;;;;;;;17.21;56.31;100843.34;4993235;28;19914;-92
2023/04/24 07:25:48;;;;;;;;;;;;;;;17.37;55.23;100842.16;4993244;28;19915;-91
2023/04/24 07:28:17;;;;;;;;;;;;;;;16.82;56.46;100851.00;4988946;28;19914;-93
2023/04/24 07:30:43;;;;;;;;;;;;;;;17.54;55.54;100843.50;4988985;28;20364;-95
2023/04/24 07:33:18;;;;;;;;;;;;;;;18.18;53.92;100844.97;4979415;28;20026;-95
2023/04/24 07:35:47;;;;;;;;;;;;;;;18.48;53.41;100839.16;4991481;28;19933;-93
2023/04/24 07:38:39;;;;;;;;;;;;;;;18.44;52.26;100838.72;4959425;28;19997;-94
2023/04/24 07:41:33;;;;;;;;;;;;;;;18.46;52.68;100843.97;4974373;28;19918;-92
2023/04/24 07:44:03;;;;;;;;;;;;;;;18.35;52.14;100849.00;4969719;28;19948;-93
2023/04/24 07:46:30;;;;;;;;;;;;;;;18.58;52.33;100850.47;4965669;28;19941;-93
2023/04/24 07:49:11;;;;;;;;;;;;;;;18.29;52.94;100852.53;4954244;28;19930;-94
2023/04/24 07:51:41;;;;;;;;;;;;;;;18.57;52.49;100859.69;4953553;28;19925;-92
2023/04/24 07:54:11;;;;;;;;;;;;;;;18.79;51.64;100852.16;4954178;28;19922;-93
2023/04/24 07:56:42;;;;;;;;;;;;;;;18.54;50.89;100863.69;4976036;28;19922;-93
2023/04/24 07:59:36;;;;;;;;;;;;;;;19.35;49.81;100854.38;4981943;28;19961;-94
2023/04/24 08:04:56;;;;;;;;;;;;;;;19.58;49.28;100861.25;4995408;28;19937;-91
2023/04/24 08:07:24;;;;;;;;;;;;;;;20.10;47.76;100855.78;5007841;28;19921;-92
2023/04/24 08:09:49;;;;;;;;;;;;;;;19.60;47.08;100857.25;4983318;28;20368;-92
2023/04/24 08:12:48;;;;;;;;;;;;;;;19.97;46.27;100849.34;4978358;28;19921;-91
2023/04/24 08:15:25;;;;;;;;;;;;;;;19.87;47.19;100859.88;5005921;28;19929;-93
2023/04/24 08:18:15;;;;;;;;;;;;;;;20.38;46.96;100864.41;5008987;28;19921;-93
2023/04/24 08:20:45;;;;;;;;;;;;;;;20.54;45.98;100862.19;5123694;23;19922;-91
2023/04/24 08:23:56;;;;;;;;;;;;;;;20.47;45.72;100864.16;5225859;23;19927;-91
2023/04/24 08:26:23;;;;;;;;;;;;;;;20.62;45.80;100865.50;4963621;29;19911;-94
2023/04/24 08:28:52;;;;;;;;;;;;;;;21.48;43.75;100857.56;4936669;29;19922;-93
2023/04/24 08:31:37;;;;;;;;;;;;;;;21.64;43.49;100858.84;4940124;29;20406;-96
2023/04/24 08:34:05;;;;;;;;;;;;;;;21.59;44.15;100862.28;4941542;29;19926;-93
2023/04/24 08:36:32;;;;;;;;;;;;;;;21.43;43.77;100865.63;4935553;29;19923;-95
2023/04/24 08:38:58;;;;;;;;;;;;;;;21.74;43.28;100850.91;4920525;29;19930;-94
2023/04/24 08:41:26;;;;;;;;;;;;;;;22.18;43.52;100848.84;4953534;29;19945;-86
2023/04/24 08:43:51;;;;;;;;;;;;;;;22.49;40.87;100855.97;4935138;29;19997;-88
2023/04/24 08:46:16;;;;;;;;;;;;;;;22.95;40.22;100850.78;4935369;29;19982;-91
2023/04/24 08:48:45;;;;;;;;;;;;;;;23.99;38.61;100850.84;4924919;29;20046;-89
2023/04/24 08:51:12;;;;;;;;;;;;;;;23.42;38.74;100855.44;4944286;29;19933;-95
2023/04/24 08:53:38;;;;;;;;;;;;;;;23.62;38.56;100844.03;4939857;29;19950;-91
2023/04/24 08:56:08;;;;;;;;;;;;;;;24.25;37.83;100845.00;4954518;29;19922;-91
2023/04/24 08:58:53;;;;;;;;;;;;;;;24.32;37.57;100845.69;4965267;29;19965;-94
2023/04/24 09:01:26;;;;;;;;;;;;;;;23.37;38.92;100829.56;4961703;29;19985;-94
2023/04/24 09:03:51;;;;;;;;;;;;;;;23.10;38.39;100853.91;4952235;29;19922;-89
2023/04/24 09:06:22;;;;;;;;;;;;;;;24.28;37.63;100839.88;4935452;29;20010;-92
2023/04/24 09:08:48;;;;;;;;;;;;;;;24.86;37.23;100837.78;4955954;28;19967;-93
2023/04/24 09:11:14;;;;;;;;;;;;;;;25.60;36.06;100836.66;4955540;29;19911;-92
2023/04/24 09:13:39;;;;;;;;;;;;;;;26.56;34.19;100835.19;4950801;29;20037;-90
2023/04/24 09:16:06;;;;;;;;;;;;;;;25.57;35.95;100834.41;4969645;29;20006;-91
2023/04/24 09:18:32;;;;;;;;;;;;;;;24.17;37.37;100833.34;4958940;28;19975;-91
2023/04/24 09:21:07;;;;;;;;;;;;;;;24.80;36.52;100836.06;4964295;28;20270;-93
2023/04/24 09:23:33;;;;;;;;;;;;;;;25.02;36.46;100844.38;4972495;28;19958;-93
2023/04/24 09:26:24;;;;;;;;;;;;;;;25.27;35.73;100843.94;4981878;28;20037;-96
2023/04/24 09:28:50;;;;;;;;;;;;;;;25.28;36.01;100849.16;4991863;28;19964;-92
2023/04/24 09:37:15;;;;;;;;;;;;;;;26.86;33.44;100837.34;4979206;28;19961;-95
2023/04/24 09:39:50;;;;;;;;;;;;;;;27.31;31.44;100834.06;4963880;28;19922;-96
2023/04/24 09:42:19;;;;;;;;;;;;;;;27.39;30.10;100838.22;4958717;28;19922;-90
2023/04/24 09:44:49;;;;;;;;;;;;;;;26.83;31.85;100833.22;4973073;28;20005;-93
2023/04/24 09:47:17;;;;;;;;;;;;;;;26.49;32.45;100829.88;4980877;28;20083;-94
2023/04/24 09:49:48;;;;;;;;;;;;;;;27.04;31.15;100831.41;4980594;28;19976;-94
2023/04/24 09:52:16;;;;;;;;;;;;;;;26.10;32.71;100832.81;5221245;22;19936;-91
2023/04/24 09:55:10;;;;;;;;;;;;;;;25.87;33.78;100822.94;4999679;28;19926;-95
2023/04/24 10:03:00;;;;;;;;;;;;;;;29.58;28.29;100817.28;5099869;23;19926;-94
2023/04/24 10:05:35;;;;;;;;;;;;;;;29.09;29.25;100809.72;4972329;28;20065;-93
2023/04/24 10:08:03;;;;;;;;;;;;;;;29.96;27.86;100806.56;4971958;28;20010;-93
2023/04/24 10:10:30;;;;;;;;;;;;;;;31.52;26.04;100809.28;4970070;28;19933;-91
2023/04/24 10:12:57;;;;;;;;;;;;;;;30.99;26.36;100811.28;4985084;28;19922;-93
2023/04/24 10:15:27;;;;;;;;;;;;;;;30.85;26.82;100814.75;4979605;28;19969;-94
2023/04/24 10:17:56;;;;;;;;;;;;;;;28.34;28.99;100812.25;4983644;28;19925;-89
2023/04/24 10:20:28;;;;;;;;;;;;;;;27.97;30.82;100803.09;4966743;28;19918;-93
2023/04/24 10:22:56;;;;;;;;;;;;;;;27.76;30.44;100795.84;5028366;23;19926;-89
2023/04/24 10:25:23;;;;;;;;;;;;;;;27.55;30.80;100800.47;4956638;28;20230;-92
2023/04/24 10:28:10;;;;;;;;;;;;;;;27.17;31.68;100808.00;4975296;28;20029;-91
2023/04/24 10:30:41;;;;;;;;;;;;;;;28.17;29.98;100794.00;4982367;28;20363;-94
2023/04/24 10:33:07;;;;;;;;;;;;;;;26.82;32.40;100803.94;4942123;28;19969;-92
2023/04/24 10:35:45;;;;;;;;;;;;;;;25.60;34.46;100801.69;4973220;28;19941;-94
2023/04/24 10:38:32;;;;;;;;;;;;;;;25.14;35.81;100808.50;4957057;28;19944;-93
2023/04/24 10:41:19;;;;;;;;;;;;;;;26.74;32.95;100799.78;4977734;28;20270;-94
2023/04/24 10:44:03;;;;;;;;;;;;;;;27.06;32.33;100809.88;4939217;28;19949;-96
2023/04/24 10:46:41;;;;;;;;;;;;;;;27.10;31.57;100797.22;4983044;28;19962;-94
2023/04/24 10:49:11;;;;;;;;;;;;;;;26.53;31.68;100796.00;4967998;28;19930;-92
2023/04/24 10:51:46;;;;;;;;;;;;;;;26.48;32.32;100789.59;5043763;23;19930;-94
2023/04/24 11:00:16;;;;;;;;;;;;;;;23.68;37.46;100802.72;5959806;22;19924;31
2023/04/24 11:25:22;;;;;;;;;;;;;;;20.52;46.29;100774.19;4958244;28;19937;-91
2023/04/24 11:28:10;;;;;;;;;;;;;;;19.36;48.38;100770.69;4978186;28;19921;-91
2023/04/24 11:30:36;;;;;;;;;;;;;;;19.44;49.64;100778.66;4976029;28;19944;-90
2023/04/24 11:33:07;;;;;;;;;;;;;;;19.67;49.39;100782.75;4984537;28;19914;-90
2023/04/24 11:35:44;;;;;;;;;;;;;;;19.99;48.75;100783.63;4995125;28;19933;-90
2023/04/24 11:38:11;;;;;;;;;;;;;;;19.86;48.45;100773.63;4972294;28;19924;-91
2023/04/24 11:40:38;;;;;;;;;;;;;;;19.36;50.43;100770.69;4978645;28;19933;-88
2023/04/24 11:43:08;;;;;;;;;;;;;;;18.99;51.40;100781.34;4987439;28;19917;-91
2023/04/24 11:45:47;;;;;;;;;;;;;;;19.22;51.25;100780.81;4992672;28;19949;-90
2023/04/24 11:48:20;;;;;;;;;;;;;;;19.17;51.42;100783.34;4995276;28;19918;-91
2023/04/24 11:50:52;;;;;;;;;;;;;;;18.33;52.46;100782.19;5005608;28;19918;-88
2023/04/24 11:53:21;;;;;;;;;;;;;;;17.81;53.95;100771.03;5008705;28;19957;-89
2023/04/24 11:55:47;;;;;;;;;;;;;;;17.56;55.33;100775.31;4970120;28;19925;-89
2023/04/24 11:58:13;;;;;;;;;;;;;;;17.26;56.14;100764.78;4976764;28;19922;-89
2023/04/24 12:00:42;;;;;;;;;;;;;;;17.48;55.61;100769.03;5017252;28;19925;-90
2023/04/24 12:03:14;;;;;;;;;;;;;;;17.69;55.35;100769.94;5001442;28;20003;-91
2023/04/24 12:05:44;;;;;;;;;;;;;;;17.71;54.87;100755.09;4988866;28;19914;-90
2023/04/24 12:08:10;;;;;;;;;;;;;;;17.71;54.36;100752.38;4982684;28;19922;-92
2023/04/24 12:11:01;;;;;;;;;;;;;;;17.48;54.90;100751.88;4972198;28;20036;-96
2023/04/24 12:13:49;;;;;;;;;;;;;;;16.97;56.68;100753.13;4987852;28;20600;-95
2023/04/24 12:16:19;;;;;;;;;;;;;;;17.26;56.71;100743.03;5009966;28;19914;-94
2023/04/24 12:21:44;;;;;;;;;;;;;;;17.22;57.18;100734.44;5005081;23;20054;-95
2023/04/24 12:24:13;;;;;;;;;;;;;;;17.12;57.82;100731.28;4983578;28;19930;-93
2023/04/24 12:26:46;;;;;;;;;;;;;;;17.07;58.18;100734.59;4970534;28;19981;-93
2023/04/24 12:29:33;;;;;;;;;;;;;;;16.89;58.12;100737.00;4972473;28;19910;-94
2023/04/24 12:32:05;;;;;;;;;;;;;;;16.81;58.82;100729.00;4970216;28;19933;-93
2023/04/24 12:34:31;;;;;;;;;;;;;;;16.76;59.51;100724.16;4972999;28;20266;-90
2023/04/24 12:37:09;;;;;;;;;;;;;;;16.83;59.23;100721.50;4979035;28;19922;-91
2023/04/24 12:39:34;;;;;;;;;;;;;;;16.43;61.06;100730.19;4961867;28;19922;-91
2023/04/24 12:42:01;;;;;;;;;;;;;;;16.50;60.56;100727.53;4974080;28;19926;-92
2023/04/24 12:47:33;;;;;;;;;;;;;;;15.87;63.18;100721.19;4983974;28;19960;-88
2023/04/24 12:50:02;;;;;;;;;;;;;;;15.74;63.56;100720.03;4971028;28;20355;-90
2023/04/24 12:52:51;;;;;;;;;;;;;;;15.82;64.14;100708.22;4960339;28;19918;-88
2023/04/24 12:55:16;;;;;;;;;;;;;;;16.21;62.96;100718.56;4982218;28;19980;-93
2023/04/24 12:57:43;;;;;;;;;;;;;;;16.11;62.72;100711.78;4977624;28;19917;-92
2023/04/24 13:00:10;;;;;;;;;;;;;;;16.03;62.48;100723.63;4994016;28;19918;-91
2023/04/24 13:02:38;;;;;;;;;;;;;;;15.58;64.88;100706.69;4979595;28;19973;-90
2023/04/24 13:05:13;;;;;;;;;;;;;;;15.60;65.11;100696.50;4962514;28;19953;-92
2023/04/24 13:07:40;;;;;;;;;;;;;;;15.87;63.77;100699.50;4980013;28;19941;-88
2023/04/24 13:10:07;;;;;;;;;;;;;;;15.58;64.83;100693.16;4976488;28;19957;-92
2023/04/24 13:12:32;;;;;;;;;;;;;;;15.89;63.93;100700.16;4955934;28;19918;-91
2023/04/24 13:14:59;;;;;;;;;;;;;;;15.46;64.59;100702.81;4959525;28;19924;-92
2023/04/24 13:17:26;;;;;;;;;;;;;;;15.54;64.58;100699.97;4956528;28;20053;-93
2023/04/24 13:19:51;;;;;;;;;;;;;;;15.38;65.12;100691.09;4956939;28;19926;-92
2023/04/24 13:22:18;;;;;;;;;;;;;;;15.11;65.56;100700.75;4964896;28;20382;-91
2023/04/24 13:24:44;;;;;;;;;;;;;;;15.08;65.40;100700.31;4959161;28;19946;-92
2023/04/24 13:27:09;;;;;;;;;;;;;;;14.80;66.23;100692.88;4956600;28;20386;-92
2023/04/24 13:29:37;;;;;;;;;;;;;;;14.97;66.13;100691.63;4960219;28;20086;-91
2023/04/24 13:32:05;;;;;;;;;;;;;;;15.14;65.68;100694.94;4960454;28;20025;-93
2023/04/24 13:34:36;;;;;;;;;;;;;;;15.11;65.38;100689.09;4948609;28;20398;-94
2023/04/24 13:37:07;;;;;;;;;;;;;;;15.29;65.20;100681.41;4990497;28;19922;-93
2023/04/24 13:39:59;;;;;;;;;;;;;;;14.99;65.86;100684.16;4969578;28;20003;-93
2023/04/24 13:42:45;;;;;;;;;;;;;;;14.93;66.08;100676.78;5011656;28;19921;-92
2023/04/24 13:45:33;;;;;;;;;;;;;;;14.82;66.69;100669.16;4987187;28;19993;-91
2023/04/24 13:48:02;;;;;;;;;;;;;;;14.69;67.47;100675.22;4957937;28;20021;-89
2023/04/24 13:50:28;;;;;;;;;;;;;;;14.82;67.16;100668.31;4983848;28;19918;-92
2023/04/24 13:53:15;;;;;;;;;;;;;;;14.73;67.64;100667.59;4959044;28;19968;-91
2023/04/24 13:55:44;;;;;;;;;;;;;;;14.64;67.48;100655.19;4971376;28;19992;-91
2023/04/24 13:58:10;;;;;;;;;;;;;;;14.47;68.34;100660.75;4977620;28;19940;-92
2023/04/24 14:00:41;;;;;;;;;;;;;;;14.49;68.70;100661.41;4970138;28;19925;-95
2023/04/24 14:03:08;;;;;;;;;;;;;;;14.59;67.88;100653.03;4966515;28;19933;-94
2023/04/24 14:05:35;;;;;;;;;;;;;;;14.46;68.33;100653.66;4971346;28;19922;-96
2023/04/24 14:11:07;;;;;;;;;;;;;;;14.71;68.74;100645.28;5004920;28;19959;-91
2023/04/24 14:13:34;;;;;;;;;;;;;;;14.81;67.81;100645.81;4987670;28;19941;-90
2023/04/24 14:15:59;;;;;;;;;;;;;;;14.81;68.05;100648.53;4995513;28;19929;-91